sensor_id;sensor_type;location;lat;lon;timestamp;P1;durP1;ratioP1;P2;durP2;ratioP2
77409;SDS011;66481;51.332;22.804;2023-04-01T00:01:32;29.55;;;17.73;;
77409;SDS011;66481;51.332;22.804;2023-04-01T00:05:33;29.33;;;15.75;;
77409;SDS011;66481;51.332;22.804;2023-04-01T00:09:33;27.50;;;15.45;;
77409;SDS011;66481;51.332;22.804;2023-04-01T00:13:35;28.20;;;16.52;;
77409;SDS011;66481;51.332;22.804;2023-04-01T00:17:36;31.27;;;18.50;;
77409;SDS011;66481;51.332;22.804;2023-04-01T00:21:38;31.08;;;18.77;;
77409;SDS011;66481;51.332;22.804;2023-04-01T00:25:38;34.13;;;18.15;;
77409;SDS011;66481;51.332;22.804;2023-04-01T00:29:43;31.45;;;17.92;;
77409;SDS011;66481;51.332;22.804;2023-04-01T00:33:45;29.50;;;17.88;;
77409;SDS011;66481;51.332;22.804;2023-04-01T00:37:46;33.08;;;18.25;;
77409;SDS011;66481;51.332;22.804;2023-04-01T00:41:47;29.80;;;17.15;;
77409;SDS011;66481;51.332;22.804;2023-04-01T00:45:49;30.08;;;17.33;;
77409;SDS011;66481;51.332;22.804;2023-04-01T00:49:51;30.73;;;18.73;;
77409;SDS011;66481;51.332;22.804;2023-04-01T00:53:55;35.40;;;19.20;;
77409;SDS011;66481;51.332;22.804;2023-04-01T00:57:58;33.38;;;18.45;;
77409;SDS011;66481;51.332;22.804;2023-04-01T01:02:02;39.50;;;19.73;;
77409;SDS011;66481;51.332;22.804;2023-04-01T01:06:06;41.50;;;22.23;;
77409;SDS011;66481;51.332;22.804;2023-04-01T01:10:19;37.92;;;20.73;;
77409;SDS011;66481;51.332;22.804;2023-04-01T01:18:52;36.95;;;20.85;;
77409;SDS011;66481;51.332;22.804;2023-04-01T01:27:30;43.53;;;23.52;;
77409;SDS011;66481;51.332;22.804;2023-04-01T01:35:38;37.53;;;21.85;;
77409;SDS011;66481;51.332;22.804;2023-04-01T01:39:59;41.85;;;22.88;;
77409;SDS011;66481;51.332;22.804;2023-04-01T01:44:04;36.85;;;21.98;;
77409;SDS011;66481;51.332;22.804;2023-04-01T01:48:09;41.13;;;22.63;;
77409;SDS011;66481;51.332;22.804;2023-04-01T01:52:12;40.08;;;22.60;;
77409;SDS011;66481;51.332;22.804;2023-04-01T01:56:14;43.60;;;23.88;;
77409;SDS011;66481;51.332;22.804;2023-04-01T02:00:19;40.17;;;22.98;;
77409;SDS011;66481;51.332;22.804;2023-04-01T02:04:21;43.72;;;24.17;;
77409;SDS011;66481;51.332;22.804;2023-04-01T02:08:38;38.40;;;23.08;;
77409;SDS011;66481;51.332;22.804;2023-04-01T02:12:43;39.10;;;22.80;;
77409;SDS011;66481;51.332;22.804;2023-04-01T02:20:53;40.72;;;22.02;;
77409;SDS011;66481;51.332;22.804;2023-04-01T02:25:06;41.17;;;21.73;;
77409;SDS011;66481;51.332;22.804;2023-04-01T02:29:09;40.67;;;21.98;;
77409;SDS011;66481;51.332;22.804;2023-04-01T02:33:12;43.17;;;22.90;;
77409;SDS011;66481;51.332;22.804;2023-04-01T02:37:13;37.30;;;20.20;;
77409;SDS011;66481;51.332;22.804;2023-04-01T02:41:15;34.08;;;19.77;;
77409;SDS011;66481;51.332;22.804;2023-04-01T02:45:16;35.08;;;20.02;;
77409;SDS011;66481;51.332;22.804;2023-04-01T02:49:18;36.75;;;18.98;;
77409;SDS011;66481;51.332;22.804;2023-04-01T02:53:19;34.80;;;19.85;;
77409;SDS011;66481;51.332;22.804;2023-04-01T02:57:20;36.08;;;18.80;;
77409;SDS011;66481;51.332;22.804;2023-04-01T03:01:22;33.55;;;18.65;;
77409;SDS011;66481;51.332;22.804;2023-04-01T03:05:23;37.13;;;17.70;;
77409;SDS011;66481;51.332;22.804;2023-04-01T03:09:24;32.28;;;16.95;;
77409;SDS011;66481;51.332;22.804;2023-04-01T03:13:25;31.73;;;17.88;;
77409;SDS011;66481;51.332;22.804;2023-04-01T03:17:26;34.97;;;19.00;;
77409;SDS011;66481;51.332;22.804;2023-04-01T03:21:27;34.90;;;19.00;;
77409;SDS011;66481;51.332;22.804;2023-04-01T03:25:28;32.03;;;18.58;;
77409;SDS011;66481;51.332;22.804;2023-04-01T03:29:31;36.70;;;19.90;;
77409;SDS011;66481;51.332;22.804;2023-04-01T03:33:32;35.65;;;18.60;;
77409;SDS011;66481;51.332;22.804;2023-04-01T03:37:32;34.10;;;19.00;;
77409;SDS011;66481;51.332;22.804;2023-04-01T03:41:35;34.15;;;19.23;;
77409;SDS011;66481;51.332;22.804;2023-04-01T03:45:44;31.38;;;19.00;;
77409;SDS011;66481;51.332;22.804;2023-04-01T03:49:46;36.60;;;20.00;;
77409;SDS011;66481;51.332;22.804;2023-04-01T03:53:47;37.70;;;19.90;;
77409;SDS011;66481;51.332;22.804;2023-04-01T03:57:49;35.92;;;19.95;;
77409;SDS011;66481;51.332;22.804;2023-04-01T04:01:50;34.03;;;19.17;;
77409;SDS011;66481;51.332;22.804;2023-04-01T04:05:51;34.20;;;19.77;;
77409;SDS011;66481;51.332;22.804;2023-04-01T04:09:52;31.23;;;18.13;;
77409;SDS011;66481;51.332;22.804;2023-04-01T04:13:53;33.85;;;18.55;;
77409;SDS011;66481;51.332;22.804;2023-04-01T04:17:54;33.00;;;18.10;;
77409;SDS011;66481;51.332;22.804;2023-04-01T04:21:55;28.30;;;17.05;;
77409;SDS011;66481;51.332;22.804;2023-04-01T04:25:57;35.28;;;18.65;;
77409;SDS011;66481;51.332;22.804;2023-04-01T04:29:59;30.08;;;17.20;;
77409;SDS011;66481;51.332;22.804;2023-04-01T04:34:00;32.80;;;18.30;;
77409;SDS011;66481;51.332;22.804;2023-04-01T04:38:01;34.53;;;18.55;;
77409;SDS011;66481;51.332;22.804;2023-04-01T04:42:02;36.33;;;19.08;;
77409;SDS011;66481;51.332;22.804;2023-04-01T04:46:04;34.00;;;18.70;;
77409;SDS011;66481;51.332;22.804;2023-04-01T04:50:09;33.65;;;18.55;;
77409;SDS011;66481;51.332;22.804;2023-04-01T04:54:10;35.50;;;20.23;;
77409;SDS011;66481;51.332;22.804;2023-04-01T04:58:11;36.58;;;19.90;;
77409;SDS011;66481;51.332;22.804;2023-04-01T05:02:13;37.70;;;20.20;;
77409;SDS011;66481;51.332;22.804;2023-04-01T05:06:14;31.23;;;18.92;;
77409;SDS011;66481;51.332;22.804;2023-04-01T05:10:17;35.30;;;20.05;;
77409;SDS011;66481;51.332;22.804;2023-04-01T05:14:18;33.90;;;19.80;;
77409;SDS011;66481;51.332;22.804;2023-04-01T05:18:20;31.77;;;18.45;;
77409;SDS011;66481;51.332;22.804;2023-04-01T05:22:22;30.98;;;18.90;;
77409;SDS011;66481;51.332;22.804;2023-04-01T05:26:24;37.20;;;20.02;;
77409;SDS011;66481;51.332;22.804;2023-04-01T05:30:25;40.60;;;21.55;;
77409;SDS011;66481;51.332;22.804;2023-04-01T05:34:26;33.53;;;19.45;;
77409;SDS011;66481;51.332;22.804;2023-04-01T05:38:26;28.73;;;18.67;;
77409;SDS011;66481;51.332;22.804;2023-04-01T05:42:28;32.53;;;17.70;;
77409;SDS011;66481;51.332;22.804;2023-04-01T05:46:28;27.73;;;16.60;;
77409;SDS011;66481;51.332;22.804;2023-04-01T05:50:30;27.60;;;17.23;;
77409;SDS011;66481;51.332;22.804;2023-04-01T05:54:32;28.13;;;15.75;;
77409;SDS011;66481;51.332;22.804;2023-04-01T05:58:33;27.33;;;17.23;;
77409;SDS011;66481;51.332;22.804;2023-04-01T06:02:34;26.30;;;15.55;;
77409;SDS011;66481;51.332;22.804;2023-04-01T06:06:36;28.80;;;16.90;;
77409;SDS011;66481;51.332;22.804;2023-04-01T06:10:48;28.60;;;15.85;;
77409;SDS011;66481;51.332;22.804;2023-04-01T06:33:06;21.95;;;14.85;;
77409;SDS011;66481;51.332;22.804;2023-04-01T06:46:04;25.83;;;15.07;;
77409;SDS011;66481;51.332;22.804;2023-04-01T06:50:16;26.73;;;16.33;;
77409;SDS011;66481;51.332;22.804;2023-04-01T06:58:34;25.40;;;15.88;;
77409;SDS011;66481;51.332;22.804;2023-04-01T07:02:39;27.25;;;16.70;;
77409;SDS011;66481;51.332;22.804;2023-04-01T07:06:53;23.30;;;13.48;;
77409;SDS011;66481;51.332;22.804;2023-04-01T07:10:59;22.30;;;13.77;;
77409;SDS011;66481;51.332;22.804;2023-04-01T07:15:19;22.08;;;14.00;;
77409;SDS011;66481;51.332;22.804;2023-04-01T07:23:28;17.02;;;11.07;;
77409;SDS011;66481;51.332;22.804;2023-04-01T07:27:36;15.82;;;11.45;;
77409;SDS011;66481;51.332;22.804;2023-04-01T07:44:24;15.50;;;10.95;;
77409;SDS011;66481;51.332;22.804;2023-04-01T07:57:53;14.82;;;11.35;;
77409;SDS011;66481;51.332;22.804;2023-04-01T08:10:34;11.93;;;10.10;;
77409;SDS011;66481;51.332;22.804;2023-04-01T08:19:04;10.43;;;8.48;;
77409;SDS011;66481;51.332;22.804;2023-04-01T08:23:26;9.63;;;8.52;;
77409;SDS011;66481;51.332;22.804;2023-04-01T08:27:34;9.98;;;7.85;;
77409;SDS011;66481;51.332;22.804;2023-04-01T08:36:38;10.13;;;8.07;;
77409;SDS011;66481;51.332;22.804;2023-04-01T08:45:34;9.20;;;7.10;;
77409;SDS011;66481;51.332;22.804;2023-04-01T08:49:48;9.65;;;7.22;;
77409;SDS011;66481;51.332;22.804;2023-04-01T08:54:14;9.68;;;7.53;;
77409;SDS011;66481;51.332;22.804;2023-04-01T09:07:12;8.80;;;6.88;;
77409;SDS011;66481;51.332;22.804;2023-04-01T09:42:38;7.13;;;5.50;;
77409;SDS011;66481;51.332;22.804;2023-04-01T09:51:02;5.78;;;3.88;;
77409;SDS011;66481;51.332;22.804;2023-04-01T10:17:28;6.57;;;4.95;;
77409;SDS011;66481;51.332;22.804;2023-04-01T10:35:03;4.82;;;3.65;;
77409;SDS011;66481;51.332;22.804;2023-04-01T10:53:12;6.43;;;3.70;;
77409;SDS011;66481;51.332;22.804;2023-04-01T10:57:55;4.07;;;3.50;;
77409;SDS011;66481;51.332;22.804;2023-04-01T11:46:05;12.43;;;6.60;;
77409;SDS011;66481;51.332;22.804;2023-04-01T11:58:59;7.07;;;5.15;;
77409;SDS011;66481;51.332;22.804;2023-04-01T12:03:40;8.30;;;5.93;;
77409;SDS011;66481;51.332;22.804;2023-04-01T12:12:16;7.25;;;5.75;;
77409;SDS011;66481;51.332;22.804;2023-04-01T12:16:42;7.47;;;6.13;;
77409;SDS011;66481;51.332;22.804;2023-04-01T12:55:44;4.53;;;2.55;;
77409;SDS011;66481;51.332;22.804;2023-04-01T13:12:48;9.70;;;5.65;;
77409;SDS011;66481;51.332;22.804;2023-04-01T13:30:24;5.15;;;3.67;;
77409;SDS011;66481;51.332;22.804;2023-04-01T13:56:38;7.53;;;4.45;;
77409;SDS011;66481;51.332;22.804;2023-04-01T14:01:10;3.63;;;2.33;;
77409;SDS011;66481;51.332;22.804;2023-04-01T14:35:53;15.35;;;6.40;;
77409;SDS011;66481;51.332;22.804;2023-04-01T14:40:19;7.15;;;4.05;;
77409;SDS011;66481;51.332;22.804;2023-04-01T14:44:37;16.92;;;9.27;;
77409;SDS011;66481;51.332;22.804;2023-04-01T14:53:26;4.45;;;3.55;;
77409;SDS011;66481;51.332;22.804;2023-04-01T14:57:31;3.78;;;3.00;;
77409;SDS011;66481;51.332;22.804;2023-04-01T15:44:50;12.02;;;6.90;;
77409;SDS011;66481;51.332;22.804;2023-04-01T15:49:08;13.90;;;8.15;;
77409;SDS011;66481;51.332;22.804;2023-04-01T16:26:09;20.13;;;11.98;;
77409;SDS011;66481;51.332;22.804;2023-04-01T16:39:41;17.75;;;9.18;;
77409;SDS011;66481;51.332;22.804;2023-04-01T16:43:49;13.45;;;9.50;;
77409;SDS011;66481;51.332;22.804;2023-04-01T16:47:56;16.23;;;9.48;;
77409;SDS011;66481;51.332;22.804;2023-04-01T16:56:27;16.75;;;10.25;;
77409;SDS011;66481;51.332;22.804;2023-04-01T17:05:04;24.65;;;13.50;;
77409;SDS011;66481;51.332;22.804;2023-04-01T17:09:15;34.78;;;18.15;;
77409;SDS011;66481;51.332;22.804;2023-04-01T17:32:08;28.30;;;15.57;;
77409;SDS011;66481;51.332;22.804;2023-04-01T17:36:13;27.65;;;14.60;;
77409;SDS011;66481;51.332;22.804;2023-04-01T17:44:41;20.77;;;12.32;;
77409;SDS011;66481;51.332;22.804;2023-04-01T17:53:31;23.60;;;13.73;;
77409;SDS011;66481;51.332;22.804;2023-04-01T18:06:19;33.42;;;16.77;;
77409;SDS011;66481;51.332;22.804;2023-04-01T18:10:28;22.70;;;13.23;;
77409;SDS011;66481;51.332;22.804;2023-04-01T18:15:06;28.73;;;16.70;;
77409;SDS011;66481;51.332;22.804;2023-04-01T18:37:34;39.67;;;20.40;;
77409;SDS011;66481;51.332;22.804;2023-04-01T18:41:43;40.95;;;22.95;;
77409;SDS011;66481;51.332;22.804;2023-04-01T18:50:07;33.30;;;19.00;;
77409;SDS011;66481;51.332;22.804;2023-04-01T18:54:27;34.17;;;18.67;;
77409;SDS011;66481;51.332;22.804;2023-04-01T19:02:50;44.90;;;23.15;;
77409;SDS011;66481;51.332;22.804;2023-04-01T19:11:36;39.88;;;22.17;;
77409;SDS011;66481;51.332;22.804;2023-04-01T19:16:04;39.67;;;21.73;;
77409;SDS011;66481;51.332;22.804;2023-04-01T19:20:20;41.72;;;22.20;;
77409;SDS011;66481;51.332;22.804;2023-04-01T19:28:52;39.35;;;20.73;;
77409;SDS011;66481;51.332;22.804;2023-04-01T19:33:07;39.15;;;21.40;;
77409;SDS011;66481;51.332;22.804;2023-04-01T19:42:15;41.97;;;22.40;;
77409;SDS011;66481;51.332;22.804;2023-04-01T20:04:18;39.10;;;21.45;;
77409;SDS011;66481;51.332;22.804;2023-04-01T20:08:36;40.05;;;22.73;;
77409;SDS011;66481;51.332;22.804;2023-04-01T20:13:21;39.67;;;22.90;;
77409;SDS011;66481;51.332;22.804;2023-04-01T20:21:42;50.03;;;24.70;;
77409;SDS011;66481;51.332;22.804;2023-04-01T20:26:04;43.85;;;24.92;;
77409;SDS011;66481;51.332;22.804;2023-04-01T20:30:21;45.78;;;24.38;;
77409;SDS011;66481;51.332;22.804;2023-04-01T20:34:49;46.67;;;23.45;;
77409;SDS011;66481;51.332;22.804;2023-04-01T20:43:32;39.92;;;21.90;;
77409;SDS011;66481;51.332;22.804;2023-04-01T20:56:16;44.53;;;23.30;;
77409;SDS011;66481;51.332;22.804;2023-04-01T21:23:04;33.10;;;18.25;;
77409;SDS011;66481;51.332;22.804;2023-04-01T21:35:55;32.58;;;19.02;;
77409;SDS011;66481;51.332;22.804;2023-04-01T22:06:09;19.98;;;11.40;;
77409;SDS011;66481;51.332;22.804;2023-04-01T22:10:31;13.80;;;9.48;;
77409;SDS011;66481;51.332;22.804;2023-04-01T22:19:00;13.45;;;8.23;;
77409;SDS011;66481;51.332;22.804;2023-04-01T22:23:12;13.85;;;8.35;;
77409;SDS011;66481;51.332;22.804;2023-04-01T22:32:20;15.45;;;8.27;;
77409;SDS011;66481;51.332;22.804;2023-04-01T22:36:31;12.20;;;7.07;;
77409;SDS011;66481;51.332;22.804;2023-04-01T22:41:05;9.60;;;5.75;;
77409;SDS011;66481;51.332;22.804;2023-04-01T22:53:46;14.82;;;8.00;;
77409;SDS011;66481;51.332;22.804;2023-04-01T22:58:00;14.18;;;8.82;;
77409;SDS011;66481;51.332;22.804;2023-04-01T23:02:09;14.23;;;8.43;;
77409;SDS011;66481;51.332;22.804;2023-04-01T23:06:14;14.77;;;8.60;;
77409;SDS011;66481;51.332;22.804;2023-04-01T23:18:53;7.60;;;4.53;;
77409;SDS011;66481;51.332;22.804;2023-04-01T23:23:11;7.63;;;3.90;;
77409;SDS011;66481;51.332;22.804;2023-04-01T23:32:02;10.38;;;6.28;;
77409;SDS011;66481;51.332;22.804;2023-04-01T23:36:11;10.73;;;6.15;;
77409;SDS011;66481;51.332;22.804;2023-04-01T23:40:16;10.05;;;6.80;;
77409;SDS011;66481;51.332;22.804;2023-04-01T23:44:18;8.90;;;5.63;;
77409;SDS011;66481;51.332;22.804;2023-04-01T23:48:24;8.45;;;5.85;;
77409;SDS011;66481;51.332;22.804;2023-04-01T23:52:58;10.13;;;6.75;;
77409;SDS011;66481;51.332;22.804;2023-04-01T23:57:04;8.90;;;6.15;;
